This is the latest recevied weather packets stored in our database for station/object F4GSP-4. If no packets are shown the sender has not sent any weather packets the latest 10 day(s).
| Time | Temp. | Humidity | Pressure | Rain* | Wind** | Luminosity | Snow |
|---|---|---|---|---|---|---|---|
| 1778169209 | 19.44° C | 47% | 1022.1 hPa | - | - | - | - |
| 1778168309 | 22.22° C | 46% | 1021.9 hPa | - | - | - | - |
| 1778167729 | 26.11° C | 49% | 1021.7 hPa | - | - | - | - |
| 1778167409 | 26.11° C | 49% | 1021.7 hPa | - | - | - | - |
| 1778166509 | 25.56° C | 49% | 1021.7 hPa | - | - | - | - |
| 1778165609 | 25° C | 49% | 1021.8 hPa | - | - | - | - |
| 1778164708 | 23.33° C | 52% | 1021.8 hPa | - | - | - | - |
| 1778163808 | 20° C | 49% | 1021.9 hPa | - | - | - | - |
| 1778162908 | 20.56° C | 50% | 1021.9 hPa | - | - | - | - |
| 1778162008 | 20.56° C | 50% | 1021.9 hPa | - | - | - | - |
| 1778161108 | 20° C | 50% | 1022 hPa | - | - | - | - |
| 1778160207 | 21.11° C | 50% | 1022.1 hPa | - | - | - | - |
| 1778159307 | 22.22° C | 51% | 1022.1 hPa | - | - | - | - |
| 1778158407 | 22.22° C | 51% | 1022.1 hPa | - | - | - | - |
| 1778157507 | 21.67° C | 51% | 1022.2 hPa | - | - | - | - |
| 1778156607 | 20.56° C | 52% | 1022.2 hPa | - | - | - | - |
| 1778155707 | 21.11° C | 53% | 1022.2 hPa | - | - | - | - |
| 1778154807 | 20° C | 54% | 1022.3 hPa | - | - | - | - |
| 1778154807 | 20° C | 54% | 1022.3 hPa | - | - | - | - |
| 1778153906 | 19.44° C | 54% | 1022.4 hPa | - | - | - | - |
| 1778153006 | 19.44° C | 54% | 1022.5 hPa | - | - | - | - |
| 1778152106 | 18.89° C | 55% | 1022.7 hPa | - | - | - | - |
| 1778151206 | 18.89° C | 55% | 1022.8 hPa | - | - | - | - |
| 1778150306 | 18.89° C | 56% | 1022.9 hPa | - | - | - | - |
| 1778149406 | 17.78° C | 57% | 1023 hPa | - | - | - | - |
* Rain since midnight (hover to see other rain measurements)
** Current wind speed in m/s (hover to see current wind gust speed)